sensor_id;sensor_type;location;lat;lon;timestamp;temperature;humidity
46091;DHT22;31826;53.572;10.170;2023-06-19T00:02:16;21.20;88.80
46091;DHT22;31826;53.572;10.170;2023-06-19T00:04:42;21.30;88.90
46091;DHT22;31826;53.572;10.170;2023-06-19T00:07:07;21.30;89.10
46091;DHT22;31826;53.572;10.170;2023-06-19T00:09:33;21.20;89.20
46091;DHT22;31826;53.572;10.170;2023-06-19T00:11:59;21.10;89.50
46091;DHT22;31826;53.572;10.170;2023-06-19T00:14:25;21.10;89.90
46091;DHT22;31826;53.572;10.170;2023-06-19T00:16:51;21.10;89.60
46091;DHT22;31826;53.572;10.170;2023-06-19T00:19:17;21.10;89.60
46091;DHT22;31826;53.572;10.170;2023-06-19T00:21:43;21.30;89.70
46091;DHT22;31826;53.572;10.170;2023-06-19T00:24:09;21.30;89.30
46091;DHT22;31826;53.572;10.170;2023-06-19T00:26:35;21.20;89.50
46091;DHT22;31826;53.572;10.170;2023-06-19T00:29:01;21.30;89.60
46091;DHT22;31826;53.572;10.170;2023-06-19T00:31:27;21.20;89.90
46091;DHT22;31826;53.572;10.170;2023-06-19T00:33:53;21.20;89.90
46091;DHT22;31826;53.572;10.170;2023-06-19T00:36:19;21.00;90.30
46091;DHT22;31826;53.572;10.170;2023-06-19T00:38:51;21.00;90.50
46091;DHT22;31826;53.572;10.170;2023-06-19T00:41:17;21.00;90.80
46091;DHT22;31826;53.572;10.170;2023-06-19T00:43:43;21.10;90.60
46091;DHT22;31826;53.572;10.170;2023-06-19T00:46:09;21.00;90.50
46091;DHT22;31826;53.572;10.170;2023-06-19T00:48:35;20.80;91.00
46091;DHT22;31826;53.572;10.170;2023-06-19T00:51:01;20.90;90.90
46091;DHT22;31826;53.572;10.170;2023-06-19T00:53:27;20.90;90.90
46091;DHT22;31826;53.572;10.170;2023-06-19T00:55:54;21.00;90.90
46091;DHT22;31826;53.572;10.170;2023-06-19T00:58:21;21.00;90.60
46091;DHT22;31826;53.572;10.170;2023-06-19T01:00:48;21.10;90.70
46091;DHT22;31826;53.572;10.170;2023-06-19T01:03:14;21.10;90.50
46091;DHT22;31826;53.572;10.170;2023-06-19T01:05:40;21.10;90.60
46091;DHT22;31826;53.572;10.170;2023-06-19T01:10:49;21.10;90.80
46091;DHT22;31826;53.572;10.170;2023-06-19T01:13:37;20.90;90.80
46091;DHT22;31826;53.572;10.170;2023-06-19T01:16:03;20.90;91.00
46091;DHT22;31826;53.572;10.170;2023-06-19T01:18:30;20.90;91.20
46091;DHT22;31826;53.572;10.170;2023-06-19T01:21:08;20.80;91.30
46091;DHT22;31826;53.572;10.170;2023-06-19T01:23:33;20.70;91.80
46091;DHT22;31826;53.572;10.170;2023-06-19T01:25:59;20.60;92.00
46091;DHT22;31826;53.572;10.170;2023-06-19T01:28:25;20.60;92.00
46091;DHT22;31826;53.572;10.170;2023-06-19T01:30:53;20.70;91.90
46091;DHT22;31826;53.572;10.170;2023-06-19T01:33:25;20.70;91.90
46091;DHT22;31826;53.572;10.170;2023-06-19T01:35:52;20.60;92.10
46091;DHT22;31826;53.572;10.170;2023-06-19T01:38:19;20.60;92.10
46091;DHT22;31826;53.572;10.170;2023-06-19T01:40:48;20.60;92.30
46091;DHT22;31826;53.572;10.170;2023-06-19T01:43:16;20.60;92.20
46091;DHT22;31826;53.572;10.170;2023-06-19T01:45:42;20.60;92.40
46091;DHT22;31826;53.572;10.170;2023-06-19T01:48:08;20.60;92.40
46091;DHT22;31826;53.572;10.170;2023-06-19T01:50:34;20.60;92.30
46091;DHT22;31826;53.572;10.170;2023-06-19T01:53:00;20.60;92.50
46091;DHT22;31826;53.572;10.170;2023-06-19T01:55:25;20.60;92.50
46091;DHT22;31826;53.572;10.170;2023-06-19T01:57:51;20.50;92.60
46091;DHT22;31826;53.572;10.170;2023-06-19T02:00:17;20.50;92.70
46091;DHT22;31826;53.572;10.170;2023-06-19T02:02:43;20.30;93.20
46091;DHT22;31826;53.572;10.170;2023-06-19T02:05:09;20.20;93.20
46091;DHT22;31826;53.572;10.170;2023-06-19T02:07:35;20.30;93.40
46091;DHT22;31826;53.572;10.170;2023-06-19T02:10:00;20.20;93.50
46091;DHT22;31826;53.572;10.170;2023-06-19T02:12:26;20.40;93.50
46091;DHT22;31826;53.572;10.170;2023-06-19T02:14:52;20.40;93.30
46091;DHT22;31826;53.572;10.170;2023-06-19T02:17:18;20.50;93.00
46091;DHT22;31826;53.572;10.170;2023-06-19T02:19:44;20.50;93.10
46091;DHT22;31826;53.572;10.170;2023-06-19T02:22:09;20.50;93.00
46091;DHT22;31826;53.572;10.170;2023-06-19T02:24:35;20.50;93.10
46091;DHT22;31826;53.572;10.170;2023-06-19T02:27:02;20.40;93.30
46091;DHT22;31826;53.572;10.170;2023-06-19T02:29:28;20.50;93.20
46091;DHT22;31826;53.572;10.170;2023-06-19T02:31:55;20.50;93.00
46091;DHT22;31826;53.572;10.170;2023-06-19T02:34:21;20.60;93.10
46091;DHT22;31826;53.572;10.170;2023-06-19T02:36:50;20.50;93.10
46091;DHT22;31826;53.572;10.170;2023-06-19T02:39:15;20.40;93.50
46091;DHT22;31826;53.572;10.170;2023-06-19T02:41:41;20.30;93.80
46091;DHT22;31826;53.572;10.170;2023-06-19T02:44:11;20.30;93.50
46091;DHT22;31826;53.572;10.170;2023-06-19T02:46:37;20.40;93.90
46091;DHT22;31826;53.572;10.170;2023-06-19T02:49:03;20.20;93.90
46091;DHT22;31826;53.572;10.170;2023-06-19T02:51:29;20.20;94.00
46091;DHT22;31826;53.572;10.170;2023-06-19T02:53:54;20.30;93.90
46091;DHT22;31826;53.572;10.170;2023-06-19T02:56:20;20.30;94.20
46091;DHT22;31826;53.572;10.170;2023-06-19T02:58:46;20.30;93.80
46091;DHT22;31826;53.572;10.170;2023-06-19T03:01:12;20.40;93.90
46091;DHT22;31826;53.572;10.170;2023-06-19T03:03:37;20.40;93.60
46091;DHT22;31826;53.572;10.170;2023-06-19T03:06:07;20.30;94.00
46091;DHT22;31826;53.572;10.170;2023-06-19T03:08:37;20.40;94.10
46091;DHT22;31826;53.572;10.170;2023-06-19T03:11:03;20.20;94.10
46091;DHT22;31826;53.572;10.170;2023-06-19T03:13:50;20.30;94.10
46091;DHT22;31826;53.572;10.170;2023-06-19T03:16:16;20.40;94.00
46091;DHT22;31826;53.572;10.170;2023-06-19T03:18:42;20.40;94.00
46091;DHT22;31826;53.572;10.170;2023-06-19T03:21:13;20.40;93.80
46091;DHT22;31826;53.572;10.170;2023-06-19T03:23:39;20.30;94.00
46091;DHT22;31826;53.572;10.170;2023-06-19T03:26:09;20.30;94.20
46091;DHT22;31826;53.572;10.170;2023-06-19T03:28:36;20.30;94.00
46091;DHT22;31826;53.572;10.170;2023-06-19T03:31:01;20.20;94.10
46091;DHT22;31826;53.572;10.170;2023-06-19T03:33:27;20.10;94.20
46091;DHT22;31826;53.572;10.170;2023-06-19T03:35:53;20.10;94.40
46091;DHT22;31826;53.572;10.170;2023-06-19T03:38:18;20.00;94.60
46091;DHT22;31826;53.572;10.170;2023-06-19T03:40:44;20.00;94.70
46091;DHT22;31826;53.572;10.170;2023-06-19T03:43:10;20.00;94.80
46091;DHT22;31826;53.572;10.170;2023-06-19T03:45:36;20.10;94.50
46091;DHT22;31826;53.572;10.170;2023-06-19T03:48:02;20.10;94.40
46091;DHT22;31826;53.572;10.170;2023-06-19T03:50:28;20.20;94.10
46091;DHT22;31826;53.572;10.170;2023-06-19T03:52:54;20.30;94.30
46091;DHT22;31826;53.572;10.170;2023-06-19T03:55:20;20.20;94.40
46091;DHT22;31826;53.572;10.170;2023-06-19T03:57:45;20.20;94.40
46091;DHT22;31826;53.572;10.170;2023-06-19T04:00:13;20.10;94.40
46091;DHT22;31826;53.572;10.170;2023-06-19T04:02:39;20.10;94.60
46091;DHT22;31826;53.572;10.170;2023-06-19T04:05:06;20.10;94.70
46091;DHT22;31826;53.572;10.170;2023-06-19T04:07:31;20.20;94.40
46091;DHT22;31826;53.572;10.170;2023-06-19T04:09:58;20.30;94.50
46091;DHT22;31826;53.572;10.170;2023-06-19T04:12:24;20.30;94.30
46091;DHT22;31826;53.572;10.170;2023-06-19T04:14:50;20.50;94.20
46091;DHT22;31826;53.572;10.170;2023-06-19T04:17:17;20.40;94.10
46091;DHT22;31826;53.572;10.170;2023-06-19T04:19:42;20.50;93.90
46091;DHT22;31826;53.572;10.170;2023-06-19T04:22:08;20.30;94.00
46091;DHT22;31826;53.572;10.170;2023-06-19T04:24:35;20.40;94.10
46091;DHT22;31826;53.572;10.170;2023-06-19T04:27:00;20.20;94.30
46091;DHT22;31826;53.572;10.170;2023-06-19T04:29:26;20.20;94.60
46091;DHT22;31826;53.572;10.170;2023-06-19T04:31:52;20.20;94.60
46091;DHT22;31826;53.572;10.170;2023-06-19T04:34:18;20.10;94.80
46091;DHT22;31826;53.572;10.170;2023-06-19T04:36:50;20.00;95.10
46091;DHT22;31826;53.572;10.170;2023-06-19T04:39:16;20.00;95.20
46091;DHT22;31826;53.572;10.170;2023-06-19T04:41:44;20.10;95.20
46091;DHT22;31826;53.572;10.170;2023-06-19T04:44:10;20.00;95.30
46091;DHT22;31826;53.572;10.170;2023-06-19T04:46:40;19.90;95.50
46091;DHT22;31826;53.572;10.170;2023-06-19T04:49:06;19.90;95.40
46091;DHT22;31826;53.572;10.170;2023-06-19T04:51:32;19.90;95.50
46091;DHT22;31826;53.572;10.170;2023-06-19T04:54:01;20.00;95.60
46091;DHT22;31826;53.572;10.170;2023-06-19T04:56:27;19.90;95.70
46091;DHT22;31826;53.572;10.170;2023-06-19T04:58:53;19.90;95.70
46091;DHT22;31826;53.572;10.170;2023-06-19T05:01:21;19.90;95.90
46091;DHT22;31826;53.572;10.170;2023-06-19T05:03:53;20.00;95.90
46091;DHT22;31826;53.572;10.170;2023-06-19T05:06:19;20.00;95.80
46091;DHT22;31826;53.572;10.170;2023-06-19T05:08:44;20.10;95.70
46091;DHT22;31826;53.572;10.170;2023-06-19T05:11:10;20.10;96.00
46091;DHT22;31826;53.572;10.170;2023-06-19T05:13:36;20.10;96.10
46091;DHT22;31826;53.572;10.170;2023-06-19T05:16:01;20.20;95.80
46091;DHT22;31826;53.572;10.170;2023-06-19T05:18:27;20.30;95.80
46091;DHT22;31826;53.572;10.170;2023-06-19T05:20:53;20.40;95.50
46091;DHT22;31826;53.572;10.170;2023-06-19T05:23:18;20.40;95.40
46091;DHT22;31826;53.572;10.170;2023-06-19T05:25:44;20.30;95.40
46091;DHT22;31826;53.572;10.170;2023-06-19T05:28:10;20.30;95.80
46091;DHT22;31826;53.572;10.170;2023-06-19T05:30:36;20.30;95.50
46091;DHT22;31826;53.572;10.170;2023-06-19T05:33:02;20.30;95.70
46091;DHT22;31826;53.572;10.170;2023-06-19T05:35:27;20.20;95.80
46091;DHT22;31826;53.572;10.170;2023-06-19T05:37:53;20.20;96.10
46091;DHT22;31826;53.572;10.170;2023-06-19T05:40:19;20.10;96.30
46091;DHT22;31826;53.572;10.170;2023-06-19T05:42:45;20.10;96.30
46091;DHT22;31826;53.572;10.170;2023-06-19T05:45:11;20.20;96.30
46091;DHT22;31826;53.572;10.170;2023-06-19T05:47:37;20.10;96.30
46091;DHT22;31826;53.572;10.170;2023-06-19T05:50:03;20.20;96.20
46091;DHT22;31826;53.572;10.170;2023-06-19T05:52:29;20.10;96.50
46091;DHT22;31826;53.572;10.170;2023-06-19T05:54:55;20.10;96.50
46091;DHT22;31826;53.572;10.170;2023-06-19T05:57:20;20.00;96.90
46091;DHT22;31826;53.572;10.170;2023-06-19T05:59:50;19.90;97.00
46091;DHT22;31826;53.572;10.170;2023-06-19T06:02:17;19.90;97.50
46091;DHT22;31826;53.572;10.170;2023-06-19T06:04:43;19.90;97.00
46091;DHT22;31826;53.572;10.170;2023-06-19T06:07:09;19.80;97.20
46091;DHT22;31826;53.572;10.170;2023-06-19T06:09:34;19.80;97.50
46091;DHT22;31826;53.572;10.170;2023-06-19T06:12:00;19.70;97.40
46091;DHT22;31826;53.572;10.170;2023-06-19T06:14:26;19.80;98.00
46091;DHT22;31826;53.572;10.170;2023-06-19T06:16:52;19.80;97.90
46091;DHT22;31826;53.572;10.170;2023-06-19T06:19:21;19.80;98.10
46091;DHT22;31826;53.572;10.170;2023-06-19T06:21:48;19.80;97.90
46091;DHT22;31826;53.572;10.170;2023-06-19T06:24:14;19.90;98.30
46091;DHT22;31826;53.572;10.170;2023-06-19T06:26:40;19.90;98.10
46091;DHT22;31826;53.572;10.170;2023-06-19T06:29:07;20.00;98.30
46091;DHT22;31826;53.572;10.170;2023-06-19T06:31:33;19.90;98.20
46091;DHT22;31826;53.572;10.170;2023-06-19T06:33:59;20.10;98.20
46091;DHT22;31826;53.572;10.170;2023-06-19T06:36:25;20.20;98.40
46091;DHT22;31826;53.572;10.170;2023-06-19T06:38:50;20.20;98.10
46091;DHT22;31826;53.572;10.170;2023-06-19T06:41:16;20.00;97.90
46091;DHT22;31826;53.572;10.170;2023-06-19T06:43:42;20.10;98.50
46091;DHT22;31826;53.572;10.170;2023-06-19T06:46:09;20.20;99.00
46091;DHT22;31826;53.572;10.170;2023-06-19T06:48:36;20.20;98.50
46091;DHT22;31826;53.572;10.170;2023-06-19T06:51:01;20.40;99.10
46091;DHT22;31826;53.572;10.170;2023-06-19T06:53:28;20.50;98.90
46091;DHT22;31826;53.572;10.170;2023-06-19T06:55:55;20.60;98.70
46091;DHT22;31826;53.572;10.170;2023-06-19T06:58:20;20.70;98.30
46091;DHT22;31826;53.572;10.170;2023-06-19T07:00:46;20.80;98.40
46091;DHT22;31826;53.572;10.170;2023-06-19T07:03:13;20.90;98.30
46091;DHT22;31826;53.572;10.170;2023-06-19T07:05:38;21.00;98.70
46091;DHT22;31826;53.572;10.170;2023-06-19T07:08:04;20.90;98.10
46091;DHT22;31826;53.572;10.170;2023-06-19T07:10:30;21.00;98.00
46091;DHT22;31826;53.572;10.170;2023-06-19T07:12:56;20.90;97.30
46091;DHT22;31826;53.572;10.170;2023-06-19T07:15:22;20.70;98.20
46091;DHT22;31826;53.572;10.170;2023-06-19T07:17:48;20.70;98.10
46091;DHT22;31826;53.572;10.170;2023-06-19T07:20:14;20.80;97.60
46091;DHT22;31826;53.572;10.170;2023-06-19T07:22:41;20.70;97.80
46091;DHT22;31826;53.572;10.170;2023-06-19T07:25:07;20.80;98.00
46091;DHT22;31826;53.572;10.170;2023-06-19T07:27:33;20.90;98.30
46091;DHT22;31826;53.572;10.170;2023-06-19T07:29:59;20.90;98.00
46091;DHT22;31826;53.572;10.170;2023-06-19T07:32:25;20.90;98.00
46091;DHT22;31826;53.572;10.170;2023-06-19T07:34:50;21.00;98.00
46091;DHT22;31826;53.572;10.170;2023-06-19T07:37:16;21.00;98.10
46091;DHT22;31826;53.572;10.170;2023-06-19T07:39:49;21.00;98.30
46091;DHT22;31826;53.572;10.170;2023-06-19T07:42:18;20.90;98.30
46091;DHT22;31826;53.572;10.170;2023-06-19T07:44:45;20.70;98.70
46091;DHT22;31826;53.572;10.170;2023-06-19T07:47:11;20.70;99.00
46091;DHT22;31826;53.572;10.170;2023-06-19T07:49:37;20.60;99.50
46091;DHT22;31826;53.572;10.170;2023-06-19T07:52:04;20.60;99.40
46091;DHT22;31826;53.572;10.170;2023-06-19T07:54:30;20.70;99.20
46091;DHT22;31826;53.572;10.170;2023-06-19T07:56:56;20.60;99.80
46091;DHT22;31826;53.572;10.170;2023-06-19T07:59:22;20.60;99.60
46091;DHT22;31826;53.572;10.170;2023-06-19T08:01:48;20.80;99.60
46091;DHT22;31826;53.572;10.170;2023-06-19T08:04:13;20.70;99.70
46091;DHT22;31826;53.572;10.170;2023-06-19T08:06:39;20.80;99.60
46091;DHT22;31826;53.572;10.170;2023-06-19T08:09:05;20.70;99.70
46091;DHT22;31826;53.572;10.170;2023-06-19T08:11:30;20.70;99.50
46091;DHT22;31826;53.572;10.170;2023-06-19T08:13:56;20.80;99.90
46091;DHT22;31826;53.572;10.170;2023-06-19T08:16:25;21.00;99.60
46091;DHT22;31826;53.572;10.170;2023-06-19T08:18:51;21.20;99.90
46091;DHT22;31826;53.572;10.170;2023-06-19T08:21:17;21.70;99.60
46091;DHT22;31826;53.572;10.170;2023-06-19T08:23:43;21.90;98.60
46091;DHT22;31826;53.572;10.170;2023-06-19T08:26:10;22.20;97.80
46091;DHT22;31826;53.572;10.170;2023-06-19T08:28:36;22.30;96.50
46091;DHT22;31826;53.572;10.170;2023-06-19T08:31:02;22.30;96.50
46091;DHT22;31826;53.572;10.170;2023-06-19T08:33:28;22.60;96.30
46091;DHT22;31826;53.572;10.170;2023-06-19T08:35:53;22.80;96.50
46091;DHT22;31826;53.572;10.170;2023-06-19T08:38:19;22.80;95.30
46091;DHT22;31826;53.572;10.170;2023-06-19T08:40:45;22.80;95.30
46091;DHT22;31826;53.572;10.170;2023-06-19T08:43:11;22.70;95.80
46091;DHT22;31826;53.572;10.170;2023-06-19T08:45:37;22.70;96.60
46091;DHT22;31826;53.572;10.170;2023-06-19T08:48:03;22.80;96.20
46091;DHT22;31826;53.572;10.170;2023-06-19T08:50:32;23.10;95.90
46091;DHT22;31826;53.572;10.170;2023-06-19T08:52:58;23.20;94.50
46091;DHT22;31826;53.572;10.170;2023-06-19T08:55:24;23.20;95.40
46091;DHT22;31826;53.572;10.170;2023-06-19T08:57:51;23.30;94.60
46091;DHT22;31826;53.572;10.170;2023-06-19T09:00:25;23.20;93.80
46091;DHT22;31826;53.572;10.170;2023-06-19T09:02:51;23.40;94.50
46091;DHT22;31826;53.572;10.170;2023-06-19T09:05:18;23.60;93.80
46091;DHT22;31826;53.572;10.170;2023-06-19T09:07:54;23.90;92.90
46091;DHT22;31826;53.572;10.170;2023-06-19T09:10:20;23.70;93.00
46091;DHT22;31826;53.572;10.170;2023-06-19T09:13:00;23.80;93.70
46091;DHT22;31826;53.572;10.170;2023-06-19T09:15:32;24.00;93.00
46091;DHT22;31826;53.572;10.170;2023-06-19T09:18:07;24.40;94.00
46091;DHT22;31826;53.572;10.170;2023-06-19T09:20:36;24.60;92.70
46091;DHT22;31826;53.572;10.170;2023-06-19T09:23:04;24.70;92.40
46091;DHT22;31826;53.572;10.170;2023-06-19T09:25:30;24.40;92.20
46091;DHT22;31826;53.572;10.170;2023-06-19T09:27:56;24.20;92.40
46091;DHT22;31826;53.572;10.170;2023-06-19T09:30:23;24.30;93.10
46091;DHT22;31826;53.572;10.170;2023-06-19T09:32:49;24.60;93.10
46091;DHT22;31826;53.572;10.170;2023-06-19T09:35:15;24.70;92.20
46091;DHT22;31826;53.572;10.170;2023-06-19T09:37:41;24.70;91.80
46091;DHT22;31826;53.572;10.170;2023-06-19T09:40:07;24.50;91.90
46091;DHT22;31826;53.572;10.170;2023-06-19T09:42:47;24.50;92.40
46091;DHT22;31826;53.572;10.170;2023-06-19T09:45:14;24.90;92.80
46091;DHT22;31826;53.572;10.170;2023-06-19T09:47:44;25.20;91.70
46091;DHT22;31826;53.572;10.170;2023-06-19T09:50:15;25.10;90.50
46091;DHT22;31826;53.572;10.170;2023-06-19T09:52:42;25.10;90.60
46091;DHT22;31826;53.572;10.170;2023-06-19T09:55:08;25.00;90.90
46091;DHT22;31826;53.572;10.170;2023-06-19T09:57:35;24.90;90.40
46091;DHT22;31826;53.572;10.170;2023-06-19T10:00:05;25.00;91.40
46091;DHT22;31826;53.572;10.170;2023-06-19T10:02:42;25.30;91.20
46091;DHT22;31826;53.572;10.170;2023-06-19T10:05:08;25.30;90.90
46091;DHT22;31826;53.572;10.170;2023-06-19T10:07:37;25.20;90.70
46091;DHT22;31826;53.572;10.170;2023-06-19T10:10:08;25.30;91.50
46091;DHT22;31826;53.572;10.170;2023-06-19T10:12:42;25.40;91.00
46091;DHT22;31826;53.572;10.170;2023-06-19T10:15:20;25.60;90.00
46091;DHT22;31826;53.572;10.170;2023-06-19T10:17:53;26.00;89.10
46091;DHT22;31826;53.572;10.170;2023-06-19T10:20:27;26.30;88.10
46091;DHT22;31826;53.572;10.170;2023-06-19T10:23:15;26.40;86.80
46091;DHT22;31826;53.572;10.170;2023-06-19T10:25:45;26.40;88.00
46091;DHT22;31826;53.572;10.170;2023-06-19T10:28:17;26.30;87.00
46091;DHT22;31826;53.572;10.170;2023-06-19T10:30:44;26.30;88.60
46091;DHT22;31826;53.572;10.170;2023-06-19T10:33:09;26.60;87.80
46091;DHT22;31826;53.572;10.170;2023-06-19T10:35:41;26.80;87.60
46091;DHT22;31826;53.572;10.170;2023-06-19T10:38:07;26.90;86.20
46091;DHT22;31826;53.572;10.170;2023-06-19T10:40:36;26.70;86.80
46091;DHT22;31826;53.572;10.170;2023-06-19T10:43:02;26.30;88.10
46091;DHT22;31826;53.572;10.170;2023-06-19T10:45:29;26.20;87.30
46091;DHT22;31826;53.572;10.170;2023-06-19T10:47:55;26.10;87.60
46091;DHT22;31826;53.572;10.170;2023-06-19T10:50:22;26.50;87.70
46091;DHT22;31826;53.572;10.170;2023-06-19T10:52:52;26.70;86.10
46091;DHT22;31826;53.572;10.170;2023-06-19T10:55:18;26.60;87.90
46091;DHT22;31826;53.572;10.170;2023-06-19T10:57:47;26.30;87.00
46091;DHT22;31826;53.572;10.170;2023-06-19T11:00:25;26.20;87.30
46091;DHT22;31826;53.572;10.170;2023-06-19T11:02:51;26.50;87.80
46091;DHT22;31826;53.572;10.170;2023-06-19T11:05:20;26.60;87.00
46091;DHT22;31826;53.572;10.170;2023-06-19T11:07:51;26.90;88.40
46091;DHT22;31826;53.572;10.170;2023-06-19T11:10:25;27.50;86.80
46091;DHT22;31826;53.572;10.170;2023-06-19T11:12:56;28.00;84.30
46091;DHT22;31826;53.572;10.170;2023-06-19T11:15:34;28.00;82.90
46091;DHT22;31826;53.572;10.170;2023-06-19T11:18:02;27.80;86.30
46091;DHT22;31826;53.572;10.170;2023-06-19T11:20:28;27.80;82.70
46091;DHT22;31826;53.572;10.170;2023-06-19T11:22:58;27.90;82.40
46091;DHT22;31826;53.572;10.170;2023-06-19T11:25:37;28.10;82.80
46091;DHT22;31826;53.572;10.170;2023-06-19T11:28:14;28.30;82.90
46091;DHT22;31826;53.572;10.170;2023-06-19T11:30:40;28.40;83.00
46091;DHT22;31826;53.572;10.170;2023-06-19T11:33:19;28.50;81.70
46091;DHT22;31826;53.572;10.170;2023-06-19T11:35:53;28.90;80.30
46091;DHT22;31826;53.572;10.170;2023-06-19T11:38:23;29.00;78.00
46091;DHT22;31826;53.572;10.170;2023-06-19T11:40:50;28.90;78.80
46091;DHT22;31826;53.572;10.170;2023-06-19T11:43:30;29.00;78.40
46091;DHT22;31826;53.572;10.170;2023-06-19T11:46:03;29.30;79.70
46091;DHT22;31826;53.572;10.170;2023-06-19T11:48:30;29.30;78.60
46091;DHT22;31826;53.572;10.170;2023-06-19T11:50:56;29.00;79.90
46091;DHT22;31826;53.572;10.170;2023-06-19T11:53:23;29.10;79.20
46091;DHT22;31826;53.572;10.170;2023-06-19T11:58:14;29.70;79.10
46091;DHT22;31826;53.572;10.170;2023-06-19T12:00:45;29.80;78.50
46091;DHT22;31826;53.572;10.170;2023-06-19T12:03:10;29.90;76.50
46091;DHT22;31826;53.572;10.170;2023-06-19T12:05:37;30.10;77.40
46091;DHT22;31826;53.572;10.170;2023-06-19T12:08:03;30.50;76.30
46091;DHT22;31826;53.572;10.170;2023-06-19T12:10:30;30.60;76.30
46091;DHT22;31826;53.572;10.170;2023-06-19T12:12:55;30.60;74.10
46091;DHT22;31826;53.572;10.170;2023-06-19T12:15:21;30.30;75.30
46091;DHT22;31826;53.572;10.170;2023-06-19T12:17:47;30.00;75.60
46091;DHT22;31826;53.572;10.170;2023-06-19T12:20:13;29.80;75.60
46091;DHT22;31826;53.572;10.170;2023-06-19T12:22:41;29.50;76.70
46091;DHT22;31826;53.572;10.170;2023-06-19T12:25:08;29.30;77.50
46091;DHT22;31826;53.572;10.170;2023-06-19T12:27:34;29.40;76.50
46091;DHT22;31826;53.572;10.170;2023-06-19T12:30:00;29.30;76.40
46091;DHT22;31826;53.572;10.170;2023-06-19T12:32:25;29.00;76.60
46091;DHT22;31826;53.572;10.170;2023-06-19T12:34:51;29.00;76.30
46091;DHT22;31826;53.572;10.170;2023-06-19T12:37:20;28.80;76.10
46091;DHT22;31826;53.572;10.170;2023-06-19T12:39:46;28.60;77.00
46091;DHT22;31826;53.572;10.170;2023-06-19T12:42:12;28.40;77.90
46091;DHT22;31826;53.572;10.170;2023-06-19T12:44:41;28.40;77.80
46091;DHT22;31826;53.572;10.170;2023-06-19T12:47:07;28.60;78.50
46091;DHT22;31826;53.572;10.170;2023-06-19T12:49:33;28.90;78.20
46091;DHT22;31826;53.572;10.170;2023-06-19T12:51:59;29.00;78.80
46091;DHT22;31826;53.572;10.170;2023-06-19T12:54:26;29.30;79.40
46091;DHT22;31826;53.572;10.170;2023-06-19T12:56:52;29.40;78.50
46091;DHT22;31826;53.572;10.170;2023-06-19T12:59:19;29.40;79.30
46091;DHT22;31826;53.572;10.170;2023-06-19T13:01:44;29.30;78.80
46091;DHT22;31826;53.572;10.170;2023-06-19T13:04:12;29.10;79.00
46091;DHT22;31826;53.572;10.170;2023-06-19T13:06:38;28.80;79.60
46091;DHT22;31826;53.572;10.170;2023-06-19T13:09:06;28.50;80.30
46091;DHT22;31826;53.572;10.170;2023-06-19T13:11:32;28.30;81.50
46091;DHT22;31826;53.572;10.170;2023-06-19T13:14:02;28.20;82.60
46091;DHT22;31826;53.572;10.170;2023-06-19T13:16:27;28.10;82.50
46091;DHT22;31826;53.572;10.170;2023-06-19T13:18:53;28.20;82.80
46091;DHT22;31826;53.572;10.170;2023-06-19T13:21:19;28.30;82.10
46091;DHT22;31826;53.572;10.170;2023-06-19T13:23:45;28.20;82.50
46091;DHT22;31826;53.572;10.170;2023-06-19T13:26:11;28.30;82.90
46091;DHT22;31826;53.572;10.170;2023-06-19T13:28:37;28.30;83.60
46091;DHT22;31826;53.572;10.170;2023-06-19T13:31:03;28.40;82.20
46091;DHT22;31826;53.572;10.170;2023-06-19T13:33:29;28.50;83.60
46091;DHT22;31826;53.572;10.170;2023-06-19T13:35:54;28.90;83.70
46091;DHT22;31826;53.572;10.170;2023-06-19T13:38:20;29.30;82.80
46091;DHT22;31826;53.572;10.170;2023-06-19T13:40:47;29.80;81.50
46091;DHT22;31826;53.572;10.170;2023-06-19T13:43:12;30.00;79.30
46091;DHT22;31826;53.572;10.170;2023-06-19T13:45:38;29.90;79.30
46091;DHT22;31826;53.572;10.170;2023-06-19T13:48:05;29.60;79.60
46091;DHT22;31826;53.572;10.170;2023-06-19T13:50:31;29.60;79.50
46091;DHT22;31826;53.572;10.170;2023-06-19T13:52:58;29.50;80.20
46091;DHT22;31826;53.572;10.170;2023-06-19T13:55:24;29.70;80.40
46091;DHT22;31826;53.572;10.170;2023-06-19T13:57:49;29.90;79.50
46091;DHT22;31826;53.572;10.170;2023-06-19T14:00:15;30.20;79.90
46091;DHT22;31826;53.572;10.170;2023-06-19T14:02:41;30.10;79.40
46091;DHT22;31826;53.572;10.170;2023-06-19T14:05:10;30.20;78.90
46091;DHT22;31826;53.572;10.170;2023-06-19T14:07:36;30.50;80.20
46091;DHT22;31826;53.572;10.170;2023-06-19T14:10:04;30.50;79.40
46091;DHT22;31826;53.572;10.170;2023-06-19T14:12:30;30.60;78.30
46091;DHT22;31826;53.572;10.170;2023-06-19T14:14:56;30.80;78.80
46091;DHT22;31826;53.572;10.170;2023-06-19T14:17:22;30.80;81.30
46091;DHT22;31826;53.572;10.170;2023-06-19T14:19:49;31.40;82.70
46091;DHT22;31826;53.572;10.170;2023-06-19T14:22:14;31.40;80.80
46091;DHT22;31826;53.572;10.170;2023-06-19T14:24:40;31.70;79.20
46091;DHT22;31826;53.572;10.170;2023-06-19T14:27:06;31.00;80.70
46091;DHT22;31826;53.572;10.170;2023-06-19T14:29:32;30.30;82.10
46091;DHT22;31826;53.572;10.170;2023-06-19T14:31:57;29.90;82.70
46091;DHT22;31826;53.572;10.170;2023-06-19T14:34:23;29.30;84.00
46091;DHT22;31826;53.572;10.170;2023-06-19T14:36:49;28.90;85.60
46091;DHT22;31826;53.572;10.170;2023-06-19T14:39:15;28.70;86.60
46091;DHT22;31826;53.572;10.170;2023-06-19T14:41:41;29.00;88.20
46091;DHT22;31826;53.572;10.170;2023-06-19T14:44:07;29.50;88.50
46091;DHT22;31826;53.572;10.170;2023-06-19T14:46:33;29.60;87.10
46091;DHT22;31826;53.572;10.170;2023-06-19T14:48:59;29.60;86.40
46091;DHT22;31826;53.572;10.170;2023-06-19T14:51:26;29.90;85.30
46091;DHT22;31826;53.572;10.170;2023-06-19T14:53:52;29.90;85.30
46091;DHT22;31826;53.572;10.170;2023-06-19T14:56:18;30.00;86.00
46091;DHT22;31826;53.572;10.170;2023-06-19T14:58:44;29.80;87.00
46091;DHT22;31826;53.572;10.170;2023-06-19T15:01:10;30.00;85.80
46091;DHT22;31826;53.572;10.170;2023-06-19T15:03:36;30.30;85.10
46091;DHT22;31826;53.572;10.170;2023-06-19T15:06:03;30.20;85.20
46091;DHT22;31826;53.572;10.170;2023-06-19T15:08:29;29.90;85.70
46091;DHT22;31826;53.572;10.170;2023-06-19T15:10:57;29.20;87.70
46091;DHT22;31826;53.572;10.170;2023-06-19T15:13:23;28.70;88.80
46091;DHT22;31826;53.572;10.170;2023-06-19T15:15:48;28.40;89.40
46091;DHT22;31826;53.572;10.170;2023-06-19T15:18:16;28.40;89.30
46091;DHT22;31826;53.572;10.170;2023-06-19T15:20:41;28.10;90.30